Hereford, South Dakota
Current Conditions -  °F | °C
As of 4:58 AM on Tuesday 27 Jan 2015 (Local Time) from KRCA Reporting Station
Clear Clear  
Wind Chill: 35°   Ceiling: Unl
Heat Index: 39°   Visibility: 10mi
Dew Point: 26°   Wind: 6mph
Humidity: 60%   Direction: 270°W
Pressure: 29.93"   Gusts: NA
Location:  44.4145°N, 103.17°W
Report Text: KRCA 271158Z AUTO 27005KT 10SM CLR 04/M03 A2993 RMK AO2 SLP142 T00381033 10091 20026 57007 $
Loading
Personal Weather Stations






























Interactive Weather Map New forecast layout! Learn more

10-Day Weather Forecast

Advertisements
Track Severe Weather on mobile